createdAt,value
2022-12-11T03:27:48.174Z,99384.77
2022-12-11T03:37:20.930Z,99377.58
2022-12-11T03:39:59.920Z,99372.38
2022-12-11T03:43:24.019Z,99372.05
2022-12-11T03:46:14.684Z,99370.65
2022-12-11T03:49:27.042Z,99364.63
2022-12-11T03:52:06.944Z,99363.67
2022-12-11T03:54:47.318Z,99365.05
2022-12-11T03:57:39.894Z,99370.13
2022-12-11T04:00:45.278Z,99369.92
2022-12-11T04:03:20.724Z,99363.37
2022-12-11T04:05:57.201Z,99362.45
2022-12-11T04:09:17.722Z,99357.81
2022-12-11T04:15:06.422Z,99359.58
2022-12-11T04:17:57.400Z,99361.30
2022-12-11T04:20:50.995Z,99359.91
2022-12-11T04:23:44.071Z,99357.98
2022-12-11T04:26:19.572Z,99356.20
2022-12-11T04:28:54.006Z,99354.73
2022-12-11T04:31:29.753Z,99356.29
2022-12-11T04:34:02.845Z,99353.77
2022-12-11T04:36:35.944Z,99362.18
2022-12-11T04:39:11.954Z,99366.23
2022-12-11T04:41:44.241Z,99371.96
2022-12-11T04:44:20.577Z,99372.34
2022-12-11T04:46:55.894Z,99367.86
2022-12-11T04:49:28.827Z,99364.67
2022-12-11T04:52:04.029Z,99363.04
2022-12-11T04:54:41.789Z,99359.02
2022-12-11T04:57:16.777Z,99359.38
2022-12-11T04:59:53.615Z,99353.59
2022-12-11T05:02:28.684Z,99356.04
2022-12-11T05:05:12.100Z,99353.59
2022-12-11T05:07:47.393Z,99355.08
2022-12-11T05:10:21.845Z,99355.78
2022-12-11T05:12:57.348Z,99359.71
2022-12-11T05:15:45.892Z,99358.80
2022-12-11T05:18:20.774Z,99365.84
2022-12-11T05:21:01.117Z,99367.39
2022-12-11T05:23:33.312Z,99363.86
2022-12-11T05:26:18.892Z,99363.86
2022-12-11T05:28:54.512Z,99363.15
2022-12-11T05:31:31.855Z,99361.59
2022-12-11T05:34:04.926Z,99361.81
2022-12-11T05:36:38.747Z,99363.74
2022-12-11T05:39:14.707Z,99362.27
2022-12-11T05:41:47.654Z,99361.33
2022-12-11T05:44:20.704Z,99356.66
2022-12-11T05:46:54.903Z,99356.65
2022-12-11T05:49:31.151Z,99355.16
2022-12-11T05:52:05.913Z,99351.01
2022-12-11T05:54:44.531Z,99349.92
2022-12-11T05:57:19.168Z,99344.02
2022-12-11T05:59:52.453Z,99342.70
2022-12-11T06:02:24.923Z,99339.59
2022-12-11T06:04:56.847Z,99334.65
2022-12-11T06:07:29.873Z,99335.41
2022-12-11T06:10:03.729Z,99335.67
2022-12-11T06:12:38.719Z,99333.23
2022-12-11T06:15:18.774Z,99336.17
2022-12-11T06:17:53.795Z,99334.90
2022-12-11T06:20:27.774Z,99332.32
2022-12-11T06:23:03.655Z,99326.53
2022-12-11T06:25:41.107Z,99324.51
2022-12-11T06:28:14.062Z,99311.14
2022-12-11T06:30:48.662Z,99316.38
2022-12-11T06:33:27.706Z,99318.98
2022-12-11T06:36:11.955Z,99315.76
2022-12-11T06:38:47.523Z,99315.29
2022-12-11T06:41:23.447Z,99315.44
2022-12-11T06:43:58.096Z,99312.69
2022-12-11T06:46:35.596Z,99315.16
2022-12-11T06:49:10.591Z,99313.30
2022-12-11T06:51:43.786Z,99313.75
2022-12-11T06:54:17.934Z,99315.40
2022-12-11T06:56:53.247Z,99309.56
2022-12-11T06:59:27.297Z,99308.06
2022-12-11T07:02:02.118Z,99309.73
2022-12-11T07:04:35.528Z,99313.98
2022-12-11T07:07:14.711Z,99307.77
2022-12-11T07:09:49.447Z,99306.80
2022-12-11T07:12:23.693Z,99305.41
2022-12-11T07:14:56.547Z,99306.63
2022-12-11T07:17:32.014Z,99302.51
2022-12-11T07:20:07.006Z,99301.83
2022-12-11T07:22:46.439Z,99303.11
2022-12-11T07:25:21.909Z,99299.67
2022-12-11T07:27:58.497Z,99300.89
2022-12-11T07:30:31.585Z,99300.51
2022-12-11T07:33:05.736Z,99299.11
2022-12-11T07:35:39.324Z,99300.44
2022-12-11T07:38:08.911Z,99303.34
2022-12-11T07:40:40.074Z,99306.84
2022-12-11T07:43:18.132Z,99306.89
2022-12-11T07:45:52.102Z,99310.71
2022-12-11T07:48:25.322Z,99316.01
2022-12-11T07:50:55.981Z,99320.93
2022-12-11T07:53:27.534Z,99325.33
2022-12-11T07:56:00.898Z,99324.02
2022-12-11T07:58:30.070Z,99321.59
2022-12-11T08:01:01.851Z,99322.19
2022-12-11T08:03:40.049Z,99320.15
2022-12-11T08:06:12.959Z,99319.48
2022-12-11T08:08:48.390Z,99322.77
2022-12-11T08:14:37.498Z,99325.59
2022-12-11T08:17:08.970Z,99324.02
2022-12-11T08:19:40.345Z,99325.24
2022-12-11T08:22:14.184Z,99326.53
2022-12-11T08:24:44.197Z,99322.86
2022-12-11T08:27:15.847Z,99317.50
2022-12-11T08:29:49.089Z,99318.91
2022-12-11T08:32:24.818Z,99312.91
2022-12-11T08:34:57.507Z,99307.80
2022-12-11T08:37:29.376Z,99308.21
2022-12-11T08:39:59.318Z,99306.81
2022-12-11T08:42:31.265Z,99303.82
2022-12-11T08:45:06.412Z,99300.89
2022-12-11T08:47:34.540Z,99298.05
2022-12-11T08:50:04.543Z,99299.34
2022-12-11T08:52:35.532Z,99300.13
2022-12-11T08:55:10.514Z,99300.96
2022-12-11T08:57:41.801Z,99299.00
2022-12-11T09:00:15.259Z,99294.45
2022-12-11T09:02:47.755Z,99286.32
2022-12-11T09:05:17.181Z,99282.34
2022-12-11T09:07:50.912Z,99278.67
2022-12-11T09:10:35.902Z,99279.72
2022-12-11T09:13:05.375Z,99275.50
2022-12-11T09:15:41.188Z,99268.46
2022-12-11T09:18:15.106Z,99261.15
2022-12-11T09:21:15.257Z,99256.07
2022-12-11T09:24:02.947Z,99253.51
2022-12-11T09:26:39.372Z,99248.20
2022-12-11T09:29:15.739Z,99245.98
2022-12-11T09:31:50.405Z,99241.87
2022-12-11T09:34:29.157Z,99238.86
2022-12-11T09:37:02.010Z,99234.95
2022-12-11T09:39:33.799Z,99229.56
2022-12-11T09:42:22.861Z,99232.16
2022-12-11T09:44:57.637Z,99233.48
2022-12-11T09:47:48.668Z,99230.00
2022-12-11T09:50:34.431Z,99222.53
2022-12-11T09:53:34.420Z,99215.67
2022-12-11T09:56:21.141Z,99214.70
2022-12-11T09:59:13.773Z,99207.77
2022-12-11T10:01:45.436Z,99206.59
2022-12-11T10:05:06.832Z,99208.86
2022-12-11T10:08:19.176Z,99204.70
2022-12-11T10:11:31.196Z,99203.41
2022-12-11T10:14:24.963Z,99201.58
2022-12-11T10:17:14.073Z,99202.31
2022-12-11T10:19:43.681Z,99198.39
2022-12-11T10:22:33.712Z,99195.58
2022-12-11T10:25:23.044Z,99197.78
2022-12-11T10:27:53.576Z,99196.20
2022-12-11T10:30:37.211Z,99196.57
2022-12-11T10:33:21.973Z,99199.13
2022-12-11T10:36:00.963Z,99193.58
2022-12-11T10:38:49.845Z,99188.95
2022-12-11T10:41:22.282Z,99184.20
2022-12-11T10:43:53.130Z,99180.16
2022-12-11T10:46:29.510Z,99164.18
2022-12-11T10:49:06.008Z,99168.27
2022-12-11T10:51:41.637Z,99169.44
2022-12-11T10:54:41.219Z,99168.05
2022-12-11T10:57:15.936Z,99164.37
2022-12-11T10:59:50.198Z,99159.73
2022-12-11T11:02:48.667Z,99145.74
2022-12-11T11:05:36.558Z,99135.96
2022-12-11T11:08:27.132Z,99130.46
2022-12-11T11:11:05.545Z,99127.57
2022-12-11T11:13:40.520Z,99130.10
2022-12-11T11:16:16.532Z,99131.01
2022-12-11T11:18:55.828Z,99126.13
2022-12-11T11:21:29.869Z,99127.91
2022-12-11T11:24:07.523Z,99124.96
2022-12-11T11:27:11.711Z,99123.90
2022-12-11T11:29:37.482Z,99120.73
2022-12-11T11:32:26.592Z,99114.55
2022-12-11T11:35:11.726Z,99114.98
2022-12-11T11:37:56.412Z,99112.11
2022-12-11T11:40:40.091Z,99112.73
2022-12-11T11:46:48.379Z,99106.30
2022-12-11T11:49:52.013Z,99102.66
2022-12-11T11:52:57.034Z,99100.67
2022-12-11T11:55:58.489Z,99093.69
2022-12-11T11:58:59.122Z,99090.33
2022-12-11T12:01:43.079Z,99091.48
2022-12-11T12:04:16.574Z,99091.11
2022-12-11T12:06:59.192Z,99092.45
2022-12-11T12:10:12.875Z,99090.55
2022-12-11T12:13:23.826Z,99085.94
2022-12-11T12:16:50.540Z,99080.38
2022-12-11T12:19:36.516Z,99070.12
2022-12-11T12:22:20.585Z,99063.99
2022-12-11T12:25:22.539Z,99060.55
2022-12-11T12:28:28.411Z,99057.27
2022-12-11T12:31:30.177Z,99054.58
2022-12-11T12:34:38.563Z,99053.77
2022-12-11T12:37:45.646Z,99056.27
2022-12-11T12:40:32.796Z,99047.27
2022-12-11T12:43:32.050Z,99043.06
2022-12-11T12:46:46.881Z,99046.95
2022-12-11T12:49:48.664Z,99050.52
2022-12-11T12:52:35.690Z,99046.30
2022-12-11T12:55:28.101Z,99045.44
2022-12-11T12:58:06.067Z,99047.46
2022-12-11T13:00:43.937Z,99045.02
2022-12-11T13:03:21.067Z,99039.66
2022-12-11T13:06:07.819Z,99033.63
2022-12-11T13:08:36.678Z,99032.75
2022-12-11T13:11:18.741Z,99030.13
2022-12-11T13:14:18.969Z,99027.89
2022-12-11T13:17:22.088Z,99031.16
2022-12-11T13:20:29.132Z,99032.74
2022-12-11T13:31:10.925Z,99029.73
2022-12-11T13:37:02.347Z,99018.85
2022-12-11T13:39:42.468Z,99015.94
2022-12-11T13:42:42.154Z,99010.77
2022-12-11T13:45:55.427Z,99012.70
2022-12-11T13:48:39.456Z,99004.49
2022-12-11T13:54:29.644Z,99008.23
2022-12-11T13:57:33.774Z,99003.50
2022-12-11T14:00:33.112Z,98999.73
2022-12-11T14:03:23.149Z,98995.53
2022-12-11T14:06:05.047Z,98994.53
2022-12-11T14:15:59.062Z,98991.52
2022-12-11T14:18:51.671Z,98989.58
2022-12-11T17:40:21.856Z,98914.84
2022-12-11T22:22:27.005Z,98802.87
2022-12-11T23:29:39.681Z,98756.21
2022-12-11T23:32:28.126Z,98762.48
2022-12-11T23:35:00.356Z,98758.13
2022-12-11T23:41:06.701Z,98759.71
2022-12-11T23:43:38.390Z,98765.15
2022-12-11T23:47:21.042Z,98763.20
2022-12-11T23:49:49.142Z,98765.66
2022-12-11T23:52:18.961Z,98764.20
2022-12-11T23:54:47.652Z,98764.50
2022-12-11T23:57:16.468Z,98766.95
2022-12-11T23:59:47.834Z,98764.50
